Tuzla International Airport

Airport
ICAO code: 
LQTZ
IATA Code: 
TL
Summary
ICAO Region: 
EUR
Location: 
Gornje Dubrave, Tuzla
Serving: 
Tuzla
Elevation: 
765 ft
Coordinates: 
Aerial View: 
44° 27' 45.216" N, 18° 43' 27.984" E
Metar
Observation
LQTZ 281700Z VRB01KT 4500 BR BKN040 M00/M00 Q1024
Station
Tuzla
Date/Time
2022-01-28 17:00:00
Wind speed
01 kts
Lowest cloud amount
broken clouds
Temperature
-0°C
Dew point
-0°C
Humidity
100%
QNH
1024 hPa
Weather condition
n/a

Tuzla International Airport is an airport near Tuzla, Bosnia and Herzegovina.

Climatology

Temperate oceanic climate (Köppen climate classification Cfb)

Runways

Designator Length Width Surface Rops
9/27 2485 45 ASP No/No
Airport map: 
Aerial View: 

SKYbrary Partners:

Safety knowledge contributed by: